sensor_id;sensor_type;location;lat;lon;timestamp;pressure;altitude;pressure_sealevel;temperature;humidity
20628;BME280;10473;42.734;24.258;2023-01-25T00:00:46;92841.00;;;1.76;87.51
20628;BME280;10473;42.734;24.258;2023-01-25T00:03:14;92840.03;;;1.72;87.68
20628;BME280;10473;42.734;24.258;2023-01-25T00:05:41;92835.19;;;1.66;87.56
20628;BME280;10473;42.734;24.258;2023-01-25T00:08:09;92829.97;;;1.66;88.14
20628;BME280;10473;42.734;24.258;2023-01-25T00:10:38;92837.13;;;1.73;88.50
20628;BME280;10473;42.734;24.258;2023-01-25T00:13:06;92834.13;;;1.67;88.40
20628;BME280;10473;42.734;24.258;2023-01-25T00:15:33;92841.59;;;1.73;88.46
20628;BME280;10473;42.734;24.258;2023-01-25T00:18:01;92833.84;;;1.68;89.08
20628;BME280;10473;42.734;24.258;2023-01-25T00:20:29;92831.63;;;1.75;89.32
20628;BME280;10473;42.734;24.258;2023-01-25T00:22:56;92832.22;;;1.86;88.34
20628;BME280;10473;42.734;24.258;2023-01-25T00:25:24;92838.50;;;1.84;87.68
20628;BME280;10473;42.734;24.258;2023-01-25T00:27:53;92830.75;;;1.79;87.54
20628;BME280;10473;42.734;24.258;2023-01-25T00:30:21;92833.06;;;1.81;87.49
20628;BME280;10473;42.734;24.258;2023-01-25T00:32:53;92828.81;;;1.85;87.43
20628;BME280;10473;42.734;24.258;2023-01-25T00:35:28;92834.13;;;1.67;87.29
20628;BME280;10473;42.734;24.258;2023-01-25T00:38:00;92837.63;;;1.76;87.90
20628;BME280;10473;42.734;24.258;2023-01-25T00:40:28;92836.06;;;1.74;87.96
20628;BME280;10473;42.734;24.258;2023-01-25T00:42:59;92831.91;;;1.73;88.10
20628;BME280;10473;42.734;24.258;2023-01-25T00:45:27;92828.44;;;1.78;87.98
20628;BME280;10473;42.734;24.258;2023-01-25T00:47:54;92817.94;;;1.64;88.08
20628;BME280;10473;42.734;24.258;2023-01-25T00:50:22;92819.03;;;1.63;87.99
20628;BME280;10473;42.734;24.258;2023-01-25T00:52:50;92821.75;;;1.72;88.14
20628;BME280;10473;42.734;24.258;2023-01-25T00:55:17;92815.94;;;1.75;87.24
20628;BME280;10473;42.734;24.258;2023-01-25T00:57:48;92812.78;;;1.78;87.43
20628;BME280;10473;42.734;24.258;2023-01-25T01:00:17;92806.84;;;1.73;86.83
20628;BME280;10473;42.734;24.258;2023-01-25T01:02:46;92792.03;;;1.54;87.33
20628;BME280;10473;42.734;24.258;2023-01-25T01:05:14;92811.69;;;1.66;87.35
20628;BME280;10473;42.734;24.258;2023-01-25T01:07:41;92816.81;;;1.71;87.11
20628;BME280;10473;42.734;24.258;2023-01-25T01:10:12;92814.31;;;1.66;86.83
20628;BME280;10473;42.734;24.258;2023-01-25T01:12:39;92815.44;;;1.59;87.01
20628;BME280;10473;42.734;24.258;2023-01-25T01:15:08;92818.94;;;1.68;87.28
20628;BME280;10473;42.734;24.258;2023-01-25T01:17:37;92819.72;;;1.69;87.10
20628;BME280;10473;42.734;24.258;2023-01-25T01:20:06;92812.66;;;1.69;87.31
20628;BME280;10473;42.734;24.258;2023-01-25T01:22:34;92812.00;;;1.77;87.08
20628;BME280;10473;42.734;24.258;2023-01-25T01:25:02;92808.09;;;1.62;87.38
20628;BME280;10473;42.734;24.258;2023-01-25T01:27:30;92809.84;;;1.66;87.24
20628;BME280;10473;42.734;24.258;2023-01-25T01:29:58;92815.81;;;1.53;87.31
20628;BME280;10473;42.734;24.258;2023-01-25T01:32:25;92814.88;;;1.63;87.38
20628;BME280;10473;42.734;24.258;2023-01-25T01:34:54;92821.44;;;1.60;87.31
20628;BME280;10473;42.734;24.258;2023-01-25T01:37:22;92820.66;;;1.59;87.13
20628;BME280;10473;42.734;24.258;2023-01-25T01:39:51;92819.91;;;1.59;87.36
20628;BME280;10473;42.734;24.258;2023-01-25T01:42:18;92820.25;;;1.52;87.29
20628;BME280;10473;42.734;24.258;2023-01-25T01:44:48;92820.06;;;1.49;87.72
20628;BME280;10473;42.734;24.258;2023-01-25T01:47:21;92812.44;;;1.52;88.25
20628;BME280;10473;42.734;24.258;2023-01-25T01:50:00;92815.59;;;1.49;88.35
20628;BME280;10473;42.734;24.258;2023-01-25T01:52:35;92810.88;;;1.52;88.08
20628;BME280;10473;42.734;24.258;2023-01-25T01:55:07;92801.72;;;1.54;87.95
20628;BME280;10473;42.734;24.258;2023-01-25T01:57:40;92806.34;;;1.57;88.48
20628;BME280;10473;42.734;24.258;2023-01-25T02:00:14;92806.81;;;1.46;88.76
20628;BME280;10473;42.734;24.258;2023-01-25T02:02:44;92800.91;;;1.53;89.05
20628;BME280;10473;42.734;24.258;2023-01-25T02:05:19;92799.66;;;1.51;88.77
20628;BME280;10473;42.734;24.258;2023-01-25T02:07:51;92798.50;;;1.57;88.83
20628;BME280;10473;42.734;24.258;2023-01-25T02:10:21;92802.09;;;1.61;88.21
20628;BME280;10473;42.734;24.258;2023-01-25T02:12:51;92794.94;;;1.53;87.96
20628;BME280;10473;42.734;24.258;2023-01-25T02:15:20;92799.66;;;1.51;87.72
20628;BME280;10473;42.734;24.258;2023-01-25T02:17:49;92797.25;;;1.54;87.81
20628;BME280;10473;42.734;24.258;2023-01-25T02:20:24;92788.47;;;1.51;87.39
20628;BME280;10473;42.734;24.258;2023-01-25T02:22:58;92786.03;;;1.41;87.74
20628;BME280;10473;42.734;24.258;2023-01-25T02:25:29;92792.00;;;1.41;87.73
20628;BME280;10473;42.734;24.258;2023-01-25T02:28:00;92796.84;;;1.48;87.87
20628;BME280;10473;42.734;24.258;2023-01-25T02:30:31;92799.94;;;1.49;88.00
20628;BME280;10473;42.734;24.258;2023-01-25T02:32:59;92798.00;;;1.42;87.82
20628;BME280;10473;42.734;24.258;2023-01-25T02:35:37;92792.50;;;1.43;87.88
20628;BME280;10473;42.734;24.258;2023-01-25T02:38:06;92798.19;;;1.32;87.93
20628;BME280;10473;42.734;24.258;2023-01-25T02:40:41;92791.25;;;1.41;88.13
20628;BME280;10473;42.734;24.258;2023-01-25T02:43:11;92790.91;;;1.28;88.48
20628;BME280;10473;42.734;24.258;2023-01-25T02:45:39;92796.25;;;1.37;88.61
20628;BME280;10473;42.734;24.258;2023-01-25T02:48:06;92793.34;;;1.38;89.08
20628;BME280;10473;42.734;24.258;2023-01-25T02:50:34;92803.16;;;1.47;88.67
20628;BME280;10473;42.734;24.258;2023-01-25T02:53:02;92796.94;;;1.10;88.60
20628;BME280;10473;42.734;24.258;2023-01-25T02:55:29;92799.16;;;1.36;88.77
20628;BME280;10473;42.734;24.258;2023-01-25T02:57:58;92799.16;;;1.36;88.94
20628;BME280;10473;42.734;24.258;2023-01-25T03:00:26;92805.16;;;1.49;88.76
20628;BME280;10473;42.734;24.258;2023-01-25T03:02:54;92792.34;;;1.53;88.58
20628;BME280;10473;42.734;24.258;2023-01-25T03:05:23;92789.72;;;1.53;88.14
20628;BME280;10473;42.734;24.258;2023-01-25T03:07:52;92791.66;;;1.61;87.64
20628;BME280;10473;42.734;24.258;2023-01-25T03:10:20;92784.22;;;1.68;87.32
20628;BME280;10473;42.734;24.258;2023-01-25T03:12:48;92780.91;;;1.63;86.62
20628;BME280;10473;42.734;24.258;2023-01-25T03:15:17;92780.34;;;1.66;86.98
20628;BME280;10473;42.734;24.258;2023-01-25T03:17:44;92773.66;;;1.59;86.74
20628;BME280;10473;42.734;24.258;2023-01-25T03:20:13;92775.59;;;1.67;87.11
20628;BME280;10473;42.734;24.258;2023-01-25T03:22:41;92779.66;;;1.73;86.37
20628;BME280;10473;42.734;24.258;2023-01-25T03:25:09;92769.81;;;1.71;85.94
20628;BME280;10473;42.734;24.258;2023-01-25T03:27:40;92767.78;;;1.67;86.06
20628;BME280;10473;42.734;24.258;2023-01-25T03:30:10;92776.78;;;1.75;85.24
20628;BME280;10473;42.734;24.258;2023-01-25T03:32:40;92778.03;;;1.77;85.33
20628;BME280;10473;42.734;24.258;2023-01-25T03:35:12;92779.84;;;1.63;85.60
20628;BME280;10473;42.734;24.258;2023-01-25T03:37:40;92771.53;;;1.62;85.35
20628;BME280;10473;42.734;24.258;2023-01-25T03:40:09;92779.84;;;1.50;85.95
20628;BME280;10473;42.734;24.258;2023-01-25T03:42:40;92772.72;;;1.56;85.85
20628;BME280;10473;42.734;24.258;2023-01-25T03:45:08;92780.53;;;1.56;86.33
20628;BME280;10473;42.734;24.258;2023-01-25T03:47:41;92774.34;;;1.52;85.77
20628;BME280;10473;42.734;24.258;2023-01-25T03:50:10;92781.56;;;1.54;86.00
20628;BME280;10473;42.734;24.258;2023-01-25T03:52:47;92773.47;;;1.56;85.90
20628;BME280;10473;42.734;24.258;2023-01-25T03:55:25;92768.06;;;1.52;85.58
20628;BME280;10473;42.734;24.258;2023-01-25T03:57:53;92773.91;;;1.44;85.80
20628;BME280;10473;42.734;24.258;2023-01-25T04:00:21;92739.38;;;1.20;85.83
20628;BME280;10473;42.734;24.258;2023-01-25T04:02:58;92781.97;;;1.48;86.13
20628;BME280;10473;42.734;24.258;2023-01-25T04:05:27;92781.09;;;1.52;85.85
20628;BME280;10473;42.734;24.258;2023-01-25T04:07:55;92773.66;;;1.46;86.23
20628;BME280;10473;42.734;24.258;2023-01-25T04:10:30;92774.25;;;1.43;85.81
20628;BME280;10473;42.734;24.258;2023-01-25T04:12:58;92778.66;;;1.42;85.99
20628;BME280;10473;42.734;24.258;2023-01-25T04:15:26;92777.13;;;1.42;85.66
20628;BME280;10473;42.734;24.258;2023-01-25T04:18:07;92781.84;;;1.39;85.77
20628;BME280;10473;42.734;24.258;2023-01-25T04:20:34;92787.53;;;1.28;86.09
20628;BME280;10473;42.734;24.258;2023-01-25T04:23:02;92783.25;;;1.18;86.45
20628;BME280;10473;42.734;24.258;2023-01-25T04:25:36;92787.13;;;1.21;87.06
20628;BME280;10473;42.734;24.258;2023-01-25T04:28:10;92797.75;;;1.24;86.06
20628;BME280;10473;42.734;24.258;2023-01-25T04:30:38;92792.63;;;1.19;85.87
20628;BME280;10473;42.734;24.258;2023-01-25T04:33:07;92792.22;;;1.13;86.70
20628;BME280;10473;42.734;24.258;2023-01-25T04:35:37;92790.75;;;1.07;86.41
20628;BME280;10473;42.734;24.258;2023-01-25T04:38:08;92794.78;;;0.99;86.51
20628;BME280;10473;42.734;24.258;2023-01-25T04:40:39;92798.75;;;0.97;86.76
20628;BME280;10473;42.734;24.258;2023-01-25T04:43:07;92794.38;;;0.92;87.67
20628;BME280;10473;42.734;24.258;2023-01-25T04:45:35;92797.41;;;0.80;87.12
20628;BME280;10473;42.734;24.258;2023-01-25T04:48:09;92788.53;;;0.82;88.00
20628;BME280;10473;42.734;24.258;2023-01-25T04:50:44;92786.16;;;0.67;88.33
20628;BME280;10473;42.734;24.258;2023-01-25T04:53:13;92794.47;;;0.68;88.95
20628;BME280;10473;42.734;24.258;2023-01-25T04:55:44;92771.63;;;0.60;88.39
20628;BME280;10473;42.734;24.258;2023-01-25T04:58:13;92787.69;;;0.68;88.15
20628;BME280;10473;42.734;24.258;2023-01-25T05:00:42;92790.25;;;0.73;88.63
20628;BME280;10473;42.734;24.258;2023-01-25T05:03:12;92788.47;;;0.68;87.79
20628;BME280;10473;42.734;24.258;2023-01-25T05:05:44;92784.03;;;0.68;88.69
20628;BME280;10473;42.734;24.258;2023-01-25T05:08:14;92790.88;;;0.64;87.99
20628;BME280;10473;42.734;24.258;2023-01-25T05:10:43;92794.47;;;0.50;88.68
20628;BME280;10473;42.734;24.258;2023-01-25T05:13:37;92789.94;;;0.55;88.91
20628;BME280;10473;42.734;24.258;2023-01-25T05:16:12;92783.97;;;0.55;89.58
20628;BME280;10473;42.734;24.258;2023-01-25T05:18:41;92788.69;;;0.53;88.95
20628;BME280;10473;42.734;24.258;2023-01-25T05:21:10;92787.41;;;0.50;89.04
20628;BME280;10473;42.734;24.258;2023-01-25T05:24:08;92783.66;;;0.56;89.58
20628;BME280;10473;42.734;24.258;2023-01-25T05:26:35;92785.16;;;0.63;89.26
20628;BME280;10473;42.734;24.258;2023-01-25T05:29:21;92788.53;;;0.63;89.12
20628;BME280;10473;42.734;24.258;2023-01-25T05:32:10;92782.69;;;0.71;89.28
20628;BME280;10473;42.734;24.258;2023-01-25T05:34:41;92783.75;;;0.70;88.90
20628;BME280;10473;42.734;24.258;2023-01-25T05:37:10;92789.81;;;0.65;88.89
20628;BME280;10473;42.734;24.258;2023-01-25T05:39:41;92788.97;;;0.70;87.93
20628;BME280;10473;42.734;24.258;2023-01-25T05:42:10;92798.97;;;0.63;88.09
20628;BME280;10473;42.734;24.258;2023-01-25T05:44:40;92797.13;;;0.63;88.51
20628;BME280;10473;42.734;24.258;2023-01-25T05:47:11;92810.19;;;0.63;88.89
20628;BME280;10473;42.734;24.258;2023-01-25T05:49:41;92810.66;;;0.65;88.17
20628;BME280;10473;42.734;24.258;2023-01-25T05:52:14;92819.88;;;0.58;87.93
20628;BME280;10473;42.734;24.258;2023-01-25T05:54:42;92816.78;;;0.56;89.01
20628;BME280;10473;42.734;24.258;2023-01-25T05:57:12;92811.38;;;0.52;89.15
20628;BME280;10473;42.734;24.258;2023-01-25T05:59:42;92816.28;;;0.54;88.85
20628;BME280;10473;42.734;24.258;2023-01-25T06:02:13;92813.91;;;0.57;88.69
20628;BME280;10473;42.734;24.258;2023-01-25T06:04:43;92815.47;;;0.58;88.59
20628;BME280;10473;42.734;24.258;2023-01-25T06:07:12;92816.28;;;0.35;88.89
20628;BME280;10473;42.734;24.258;2023-01-25T06:09:41;92814.94;;;0.56;89.22
20628;BME280;10473;42.734;24.258;2023-01-25T06:12:08;92806.72;;;0.49;87.99
20628;BME280;10473;42.734;24.258;2023-01-25T06:14:36;92811.59;;;0.56;87.83
20628;BME280;10473;42.734;24.258;2023-01-25T06:17:04;92803.38;;;0.44;88.76
20628;BME280;10473;42.734;24.258;2023-01-25T06:20:00;92814.06;;;0.47;88.90
20628;BME280;10473;42.734;24.258;2023-01-25T06:22:37;92816.34;;;0.49;88.75
20628;BME280;10473;42.734;24.258;2023-01-25T06:25:07;92810.03;;;0.55;87.39
20628;BME280;10473;42.734;24.258;2023-01-25T06:27:35;92820.81;;;0.48;87.73
20628;BME280;10473;42.734;24.258;2023-01-25T06:30:03;92815.22;;;0.36;87.64
20628;BME280;10473;42.734;24.258;2023-01-25T06:32:31;92811.00;;;0.40;88.15
20628;BME280;10473;42.734;24.258;2023-01-25T06:35:00;92807.91;;;0.38;88.08
20628;BME280;10473;42.734;24.258;2023-01-25T06:37:28;92820.81;;;0.48;87.91
20628;BME280;10473;42.734;24.258;2023-01-25T06:39:56;92817.41;;;0.48;87.90
20628;BME280;10473;42.734;24.258;2023-01-25T06:42:24;92813.34;;;0.60;88.09
20628;BME280;10473;42.734;24.258;2023-01-25T06:44:51;92817.94;;;0.50;88.23
20628;BME280;10473;42.734;24.258;2023-01-25T06:47:19;92810.38;;;0.48;88.45
20628;BME280;10473;42.734;24.258;2023-01-25T06:49:47;92817.47;;;0.43;87.79
20628;BME280;10473;42.734;24.258;2023-01-25T06:52:16;92811.94;;;0.49;88.41
20628;BME280;10473;42.734;24.258;2023-01-25T06:54:43;92812.47;;;0.46;88.27
20628;BME280;10473;42.734;24.258;2023-01-25T06:57:11;92812.84;;;0.58;88.44
20628;BME280;10473;42.734;24.258;2023-01-25T06:59:39;92804.25;;;0.58;88.28
20628;BME280;10473;42.734;24.258;2023-01-25T07:02:08;92803.91;;;0.64;87.69
20628;BME280;10473;42.734;24.258;2023-01-25T07:04:38;92805.59;;;0.74;87.83
20628;BME280;10473;42.734;24.258;2023-01-25T07:07:06;92791.56;;;0.70;87.76
20628;BME280;10473;42.734;24.258;2023-01-25T07:09:36;92809.19;;;0.97;87.26
20628;BME280;10473;42.734;24.258;2023-01-25T07:12:05;92797.25;;;0.90;86.29
20628;BME280;10473;42.734;24.258;2023-01-25T07:14:33;92802.22;;;0.73;86.41
20628;BME280;10473;42.734;24.258;2023-01-25T07:17:01;92801.06;;;0.79;87.05
20628;BME280;10473;42.734;24.258;2023-01-25T07:19:28;92801.50;;;0.87;86.66
20628;BME280;10473;42.734;24.258;2023-01-25T07:21:56;92798.25;;;0.94;85.64
20628;BME280;10473;42.734;24.258;2023-01-25T07:24:24;92806.56;;;0.97;85.93
20628;BME280;10473;42.734;24.258;2023-01-25T07:26:55;92795.72;;;0.89;85.52
20628;BME280;10473;42.734;24.258;2023-01-25T07:29:23;92813.88;;;0.94;85.79
20628;BME280;10473;42.734;24.258;2023-01-25T07:31:51;92816.50;;;0.94;85.44
20628;BME280;10473;42.734;24.258;2023-01-25T07:34:18;92820.66;;;0.95;85.41
20628;BME280;10473;42.734;24.258;2023-01-25T07:36:46;92831.94;;;0.91;84.84
20628;BME280;10473;42.734;24.258;2023-01-25T07:39:14;92824.84;;;0.97;85.04
20628;BME280;10473;42.734;24.258;2023-01-25T07:41:42;92832.22;;;0.89;85.14
20628;BME280;10473;42.734;24.258;2023-01-25T07:44:15;92828.06;;;0.88;85.35
20628;BME280;10473;42.734;24.258;2023-01-25T07:46:49;92818.66;;;0.74;85.36
20628;BME280;10473;42.734;24.258;2023-01-25T07:49:16;92829.34;;;0.73;85.42
20628;BME280;10473;42.734;24.258;2023-01-25T07:51:44;92820.94;;;0.75;86.17
20628;BME280;10473;42.734;24.258;2023-01-25T07:54:12;92818.84;;;0.77;85.36
20628;BME280;10473;42.734;24.258;2023-01-25T07:56:39;92821.44;;;0.77;85.86
20628;BME280;10473;42.734;24.258;2023-01-25T07:59:08;92817.66;;;0.70;85.07
20628;BME280;10473;42.734;24.258;2023-01-25T08:01:38;92829.06;;;0.74;85.65
20628;BME280;10473;42.734;24.258;2023-01-25T08:04:06;92822.66;;;0.67;85.29
20628;BME280;10473;42.734;24.258;2023-01-25T08:06:36;92827.91;;;0.61;86.49
20628;BME280;10473;42.734;24.258;2023-01-25T08:09:06;92813.13;;;0.57;85.99
20628;BME280;10473;42.734;24.258;2023-01-25T08:11:36;92820.69;;;0.58;85.78
20628;BME280;10473;42.734;24.258;2023-01-25T08:14:03;92829.56;;;0.57;86.13
20628;BME280;10473;42.734;24.258;2023-01-25T08:16:32;92811.50;;;0.43;87.13
20628;BME280;10473;42.734;24.258;2023-01-25T08:19:02;92822.41;;;0.44;87.34
20628;BME280;10473;42.734;24.258;2023-01-25T08:21:31;92820.69;;;0.58;86.37
20628;BME280;10473;42.734;24.258;2023-01-25T08:24:01;92817.63;;;0.51;86.10
20628;BME280;10473;42.734;24.258;2023-01-25T08:26:30;92829.56;;;0.57;86.64
20628;BME280;10473;42.734;24.258;2023-01-25T08:28:58;92827.56;;;0.49;86.75
20628;BME280;10473;42.734;24.258;2023-01-25T08:31:27;92827.78;;;0.53;86.11
20628;BME280;10473;42.734;24.258;2023-01-25T08:33:55;92813.13;;;0.38;86.78
20628;BME280;10473;42.734;24.258;2023-01-25T08:36:25;92829.31;;;0.54;86.08
20628;BME280;10473;42.734;24.258;2023-01-25T08:38:54;92830.09;;;0.54;86.16
20628;BME280;10473;42.734;24.258;2023-01-25T08:41:23;92833.19;;;0.56;86.49
20628;BME280;10473;42.734;24.258;2023-01-25T08:43:53;92823.28;;;0.58;86.15
20628;BME280;10473;42.734;24.258;2023-01-25T08:46:23;92831.31;;;0.62;86.32
20628;BME280;10473;42.734;24.258;2023-01-25T08:48:53;92831.72;;;0.50;85.58
20628;BME280;10473;42.734;24.258;2023-01-25T08:51:22;92841.88;;;0.52;86.31
20628;BME280;10473;42.734;24.258;2023-01-25T08:53:51;92850.91;;;0.59;86.69
20628;BME280;10473;42.734;24.258;2023-01-25T08:56:19;92852.44;;;0.60;86.93
20628;BME280;10473;42.734;24.258;2023-01-25T08:58:49;92852.22;;;0.57;86.63
20628;BME280;10473;42.734;24.258;2023-01-25T09:01:18;92848.84;;;0.56;86.43
20628;BME280;10473;42.734;24.258;2023-01-25T09:03:48;92844.69;;;0.55;87.06
20628;BME280;10473;42.734;24.258;2023-01-25T09:06:17;92844.13;;;0.58;86.11
20628;BME280;10473;42.734;24.258;2023-01-25T09:08:45;92842.28;;;0.59;85.40
20628;BME280;10473;42.734;24.258;2023-01-25T09:11:16;92836.72;;;0.65;85.55
20628;BME280;10473;42.734;24.258;2023-01-25T09:13:44;92826.88;;;0.63;85.73
20628;BME280;10473;42.734;24.258;2023-01-25T09:16:16;92825.31;;;0.61;85.65
20628;BME280;10473;42.734;24.258;2023-01-25T09:18:44;92819.97;;;0.72;85.11
20628;BME280;10473;42.734;24.258;2023-01-25T09:21:17;92814.78;;;0.72;85.25
20628;BME280;10473;42.734;24.258;2023-01-25T09:23:47;92816.50;;;0.76;84.93
20628;BME280;10473;42.734;24.258;2023-01-25T09:26:17;92797.94;;;0.64;85.07
20628;BME280;10473;42.734;24.258;2023-01-25T09:28:47;92790.59;;;0.66;85.81
20628;BME280;10473;42.734;24.258;2023-01-25T09:31:15;92793.47;;;0.64;86.31
20628;BME280;10473;42.734;24.258;2023-01-25T09:34:01;92797.56;;;0.70;86.02
20628;BME280;10473;42.734;24.258;2023-01-25T09:36:30;92798.53;;;0.74;86.77
20628;BME280;10473;42.734;24.258;2023-01-25T09:38:57;92798.53;;;0.74;86.23
20628;BME280;10473;42.734;24.258;2023-01-25T09:42:04;92795.97;;;0.88;85.86
20628;BME280;10473;42.734;24.258;2023-01-25T09:44:54;92793.38;;;0.88;84.91
20628;BME280;10473;42.734;24.258;2023-01-25T09:47:29;92772.91;;;0.82;85.33
20628;BME280;10473;42.734;24.258;2023-01-25T09:50:30;92772.59;;;1.02;84.98
20628;BME280;10473;42.734;24.258;2023-01-25T09:53:20;92772.19;;;1.08;84.83
20628;BME280;10473;42.734;24.258;2023-01-25T09:55:51;92762.53;;;1.08;84.13
20628;BME280;10473;42.734;24.258;2023-01-25T09:58:27;92753.84;;;1.13;83.80
20628;BME280;10473;42.734;24.258;2023-01-25T10:01:15;92755.09;;;1.15;82.89
20628;BME280;10473;42.734;24.258;2023-01-25T10:03:49;92746.91;;;1.22;82.39
20628;BME280;10473;42.734;24.258;2023-01-25T10:06:21;92741.13;;;1.25;82.77
20628;BME280;10473;42.734;24.258;2023-01-25T10:08:56;92742.28;;;1.19;82.64
20628;BME280;10473;42.734;24.258;2023-01-25T10:11:28;92746.06;;;1.27;82.30
20628;BME280;10473;42.734;24.258;2023-01-25T10:13:58;92734.66;;;1.23;82.17
20628;BME280;10473;42.734;24.258;2023-01-25T10:16:30;92732.88;;;1.18;82.30
20628;BME280;10473;42.734;24.258;2023-01-25T10:19:09;92733.16;;;1.03;83.01
20628;BME280;10473;42.734;24.258;2023-01-25T10:21:43;92729.00;;;1.15;82.88
20628;BME280;10473;42.734;24.258;2023-01-25T10:27:27;92717.72;;;1.07;82.39
20628;BME280;10473;42.734;24.258;2023-01-25T10:29:59;92718.56;;;1.02;83.19
20628;BME280;10473;42.734;24.258;2023-01-25T10:32:29;92710.94;;;1.05;83.39
20628;BME280;10473;42.734;24.258;2023-01-25T10:35:12;92710.16;;;1.05;83.63
20628;BME280;10473;42.734;24.258;2023-01-25T10:37:41;92702.63;;;1.03;83.93
20628;BME280;10473;42.734;24.258;2023-01-25T10:40:16;92709.31;;;1.09;83.89
20628;BME280;10473;42.734;24.258;2023-01-25T10:42:49;92702.63;;;1.03;83.59
20628;BME280;10473;42.734;24.258;2023-01-25T10:45:19;92681.28;;;1.02;83.13
20628;BME280;10473;42.734;24.258;2023-01-25T10:47:49;92683.72;;;1.12;82.78
20628;BME280;10473;42.734;24.258;2023-01-25T10:50:41;92683.13;;;1.14;82.66
20628;BME280;10473;42.734;24.258;2023-01-25T10:53:23;92678.09;;;1.18;82.37
20628;BME280;10473;42.734;24.258;2023-01-25T10:56:14;92683.03;;;1.19;83.30
20628;BME280;10473;42.734;24.258;2023-01-25T10:58:46;92681.78;;;1.17;82.67
20628;BME280;10473;42.734;24.258;2023-01-25T11:01:27;92675.19;;;1.19;83.38
20628;BME280;10473;42.734;24.258;2023-01-25T11:03:56;92670.97;;;1.23;83.24
20628;BME280;10473;42.734;24.258;2023-01-25T11:06:33;92674.81;;;1.26;82.36
20628;BME280;10473;42.734;24.258;2023-01-25T11:09:05;92665.16;;;1.27;81.94
20628;BME280;10473;42.734;24.258;2023-01-25T11:11:53;92658.19;;;1.08;82.82
20628;BME280;10473;42.734;24.258;2023-01-25T11:14:22;92653.84;;;1.17;82.22
20628;BME280;10473;42.734;24.258;2023-01-25T11:16:54;92655.69;;;1.17;82.93
20628;BME280;10473;42.734;24.258;2023-01-25T11:19:29;92662.44;;;1.18;82.94
20628;BME280;10473;42.734;24.258;2023-01-25T11:21:59;92660.91;;;1.17;82.26
20628;BME280;10473;42.734;24.258;2023-01-25T11:24:28;92655.31;;;1.10;82.72
20628;BME280;10473;42.734;24.258;2023-01-25T11:27:15;92662.44;;;1.04;83.15
20628;BME280;10473;42.734;24.258;2023-01-25T11:29:44;92658.09;;;1.00;82.91
20628;BME280;10473;42.734;24.258;2023-01-25T11:32:25;92656.47;;;1.04;84.00
20628;BME280;10473;42.734;24.258;2023-01-25T11:34:54;92655.66;;;1.03;83.81
20628;BME280;10473;42.734;24.258;2023-01-25T11:37:30;92650.81;;;0.97;84.62
20628;BME280;10473;42.734;24.258;2023-01-25T11:40:11;92645.25;;;1.03;84.69
20628;BME280;10473;42.734;24.258;2023-01-25T11:42:50;92655.03;;;1.12;83.83
20628;BME280;10473;42.734;24.258;2023-01-25T11:45:42;92652.41;;;1.12;83.78
20628;BME280;10473;42.734;24.258;2023-01-25T11:51:18;92640.50;;;1.05;84.25
20628;BME280;10473;42.734;24.258;2023-01-25T11:53:58;92642.06;;;1.07;84.29
20628;BME280;10473;42.734;24.258;2023-01-25T11:56:42;92637.88;;;1.05;83.73
20628;BME280;10473;42.734;24.258;2023-01-25T11:59:53;92635.00;;;0.93;84.63
20628;BME280;10473;42.734;24.258;2023-01-25T12:02:49;92635.97;;;0.98;84.97
20628;BME280;10473;42.734;24.258;2023-01-25T12:05:35;92625.34;;;0.94;84.23
20628;BME280;10473;42.734;24.258;2023-01-25T12:08:21;92625.22;;;0.85;84.94
20628;BME280;10473;42.734;24.258;2023-01-25T12:10:57;92617.78;;;0.79;85.94
20628;BME280;10473;42.734;24.258;2023-01-25T12:13:35;92613.75;;;0.87;85.65
20628;BME280;10473;42.734;24.258;2023-01-25T12:16:14;92606.78;;;0.95;84.88
20628;BME280;10473;42.734;24.258;2023-01-25T12:22:05;92597.91;;;0.97;84.76
20628;BME280;10473;42.734;24.258;2023-01-25T12:24:47;92599.44;;;0.84;85.45
20628;BME280;10473;42.734;24.258;2023-01-25T12:27:29;92586.69;;;0.96;85.37
20628;BME280;10473;42.734;24.258;2023-01-25T12:30:03;92582.91;;;1.02;84.67
20628;BME280;10473;42.734;24.258;2023-01-25T12:32:40;92583.19;;;1.00;84.63
20628;BME280;10473;42.734;24.258;2023-01-25T12:35:23;92584.16;;;1.04;83.85
20628;BME280;10473;42.734;24.258;2023-01-25T12:37:59;92577.03;;;1.10;83.39
20628;BME280;10473;42.734;24.258;2023-01-25T12:40:40;92578.88;;;0.96;83.71
20628;BME280;10473;42.734;24.258;2023-01-25T12:43:15;92578.47;;;1.02;83.58
20628;BME280;10473;42.734;24.258;2023-01-25T12:45:45;92574.91;;;0.98;83.96
20628;BME280;10473;42.734;24.258;2023-01-25T12:48:18;92570.66;;;1.02;85.00
20628;BME280;10473;42.734;24.258;2023-01-25T12:50:51;92566.41;;;1.07;84.76
20628;BME280;10473;42.734;24.258;2023-01-25T12:53:23;92568.53;;;1.04;84.03
20628;BME280;10473;42.734;24.258;2023-01-25T12:55:53;92559.34;;;0.93;83.67
20628;BME280;10473;42.734;24.258;2023-01-25T12:58:29;92557.13;;;1.00;84.01
20628;BME280;10473;42.734;24.258;2023-01-25T13:01:04;92545.53;;;0.79;84.19
20628;BME280;10473;42.734;24.258;2023-01-25T13:03:38;92566.09;;;0.94;84.22
20628;BME280;10473;42.734;24.258;2023-01-25T13:06:16;92559.81;;;0.95;83.92
20628;BME280;10473;42.734;24.258;2023-01-25T13:08:51;92574.53;;;0.92;84.32
20628;BME280;10473;42.734;24.258;2023-01-25T13:11:24;92572.97;;;0.90;84.43
20628;BME280;10473;42.734;24.258;2023-01-25T13:14:19;92561.00;;;0.76;84.65
20628;BME280;10473;42.734;24.258;2023-01-25T13:16:52;92569.88;;;0.75;84.77
20628;BME280;10473;42.734;24.258;2023-01-25T13:19:21;92565.41;;;0.75;85.38
20628;BME280;10473;42.734;24.258;2023-01-25T13:21:49;92569.59;;;0.77;85.00
20628;BME280;10473;42.734;24.258;2023-01-25T13:24:22;92567.00;;;0.77;84.90
20628;BME280;10473;42.734;24.258;2023-01-25T13:27:03;92570.06;;;0.78;84.31
20628;BME280;10473;42.734;24.258;2023-01-25T13:29:56;92561.78;;;0.77;84.51
20628;BME280;10473;42.734;24.258;2023-01-25T13:35:35;92557.31;;;0.77;84.35
20628;BME280;10473;42.734;24.258;2023-01-25T13:38:31;92548.97;;;0.61;85.31